Pt. Reyes RCA field Weather observations

Data are for 10 minute period ending at time listed.
 Day   Time   Solar   Ave.   Ave.  Ave.  Vector    Max.   Stn.   Total 
  of    of     Rad.   Air    Rel.  Wind   Wind     Wind   Baro. Precip.
Year   Day            Temp.  Hum.  Speed  Dir.     Gust   Pres.        
2017   (PST)   W/m2    F      %     mph   deg.      mph    mb.    in.  
-----------------------------------------------------------------------
  35   20:30    0.0    53   98.6    10    139.2    12.8   1014.9  0.00  
  35   20:40    0.0    53   98.7     9    133.5    11.8   1014.9  0.00  
  35   20:50    0.0    53   98.7     9    137.6    10.6   1014.9  0.00  
  35   21:00    0.0    53   98.8     9    137.0    12.0   1014.9  0.00  
  35   21:10    0.0    53   98.8     7    140.6    10.3   1014.9  0.00  
  35   21:20    0.0    53   98.9     8    146.4    10.6   1015.2  0.00  
  35   21:30    0.0    53   98.9     8    145.7    10.6   1015.2  0.00  
  35   21:40    0.0    53   98.9     8    141.7    10.6   1014.9  0.00  
  35   21:50    0.0    53   98.9     9    134.3    11.2   1014.9  0.00  
  35   22:00    0.0    53   99.0     9    140.5    12.6   1014.9  0.00  
  35   22:10    0.0    53   99.0     9    138.4    11.7   1014.9  0.00  
  35   22:20    0.0    53   99.0     8    139.2    11.3   1014.9  0.00  
  35   22:30    0.0    53   99.0     8    147.0    12.4   1014.9  0.01  
  35   22:40    0.0    53   99.1    11    140.2    14.4   1014.6  0.00  
  35   22:50    0.0    53   99.1    12    138.0    15.1   1014.2  0.00  
  35   23:00    0.0    52   99.1    10    139.5    15.1   1014.2  0.00  
  35   23:10    0.0    52   99.1    10    134.2    13.2   1014.2  0.00  
  35   23:20    0.0    52   99.1    10    142.0    12.5   1014.2  0.00  
  35   23:30    0.0    52   99.1    10    143.5    13.7   1014.2  0.00  
  35   23:40    0.0    52   99.2    11    146.9    14.1   1014.2  0.00  
  35   23:50    0.0    52   99.2    11    138.6    13.2   1014.2  0.00  
  36    0:00    0.0    52   99.2    10    142.5    12.6   1014.2  0.00  
  36    0:10    0.0    52   99.2     9    140.7    12.0   1014.2  0.00  
  36    0:20    0.0    52   99.2     9    139.7    12.1   1013.9  0.00  
  36    0:30    0.0    52   99.2    10    151.3    12.3   1014.2  0.00  
  36    0:40    0.0    52   99.2    10    148.8    12.1   1013.9  0.00  
  36    0:50    0.0    52   99.2     9    148.8    11.8   1013.5  0.00  
  36    1:00    0.0    52   99.2     9    147.0    12.3   1013.5  0.00  
  36    1:10    0.0    52   99.3    10    147.6    13.4   1013.5  0.00  
  36    1:20    0.0    52   99.3     9    151.5    11.6   1013.2  0.00  
  36    1:30    0.0    52   99.3    10    150.0    14.0   1013.2  0.00  
  36    1:40    0.0    52   99.3    10    154.0    12.7   1013.2  0.01  
  36    1:50    0.0    52   99.3     9    144.6    11.7   1013.2  0.00  
  36    2:00    0.0    52   99.3     8    153.1    11.8   1013.2  0.00  
  36    2:10    0.0    52   99.3     9    159.1    10.6   1013.2  0.00  
  36    2:20    0.0    52   99.3     9    162.3    12.1   1013.5  0.00  
  36    2:30    0.0    52   99.3    10    146.2    14.0   1012.9  0.00  
  36    2:40    0.0    52   99.3     9    152.8    12.2   1012.9  0.00  
  36    2:50    0.0    52   99.3     9    163.4    12.1   1012.9  0.00  
  36    3:00    0.0    52   99.3     9    159.9    11.9   1012.9  0.00  
  36    3:10    0.0    52   99.3     8    152.5    10.8   1012.5  0.00  
  36    3:20    0.0    51   99.4     8    155.9    11.1   1012.9  0.00  
  36    3:30    0.0    52   99.4     9    160.8    12.1   1012.9  0.00  
  36    3:40    0.0    51   99.4    10    154.2    11.9   1012.9  0.00  
  36    3:50    0.0    51   99.4     9    149.3    11.5   1012.5  0.00  
  36    4:00    0.0    51   99.4     9    152.2    12.4   1012.2  0.00  
  36    4:10    0.0    51   99.4     9    151.4    13.7   1012.2  0.01  
  36    4:20    0.0    51   99.4     9    153.2    12.1   1012.2  0.00  
  36    4:30    0.0    51   99.4     9    154.6    12.2   1012.2  0.00  
  36    4:40    0.0    51   99.4    10    154.5    12.2   1011.9  0.00  
  36    4:50    0.0    51   99.4    10    155.8    12.9   1011.9  0.00  
  36    5:00    0.0    51   99.4    10    157.9    13.2   1011.9  0.00  
  36    5:10    0.0    51   99.4    11    158.7    13.8   1011.9  0.00  
  36    5:20    0.0    51   99.4    11    154.1    13.7   1011.5  0.00  
  36    5:30    0.0    51   99.4    11    153.2    13.0   1011.5  0.00  
  36    5:40    0.0    51   99.4    11    155.6    14.2   1011.2  0.00  
  36    5:50    0.0    52   99.4    11    154.2    13.6   1011.2  0.00  
  36    6:00    0.0    52   99.4    10    152.0    14.4   1011.2  0.01  
  36    6:10    0.0    52   99.4    10    140.0    13.9   1010.8  0.00  
  36    6:20    0.0    52   99.4    10    155.5    13.2   1011.2  0.01  
  36    6:30    0.0    52   99.4    10    154.6    14.1   1011.2  0.00  
  36    6:40    0.0    52   99.4     9    135.7    12.9   1011.2  0.00  
  36    6:50    0.0    52   99.4     9    136.9    12.6   1011.2  0.00  
  36    7:00    0.0    52   99.4     9    137.3    12.3   1011.2  0.00  
  36    7:10    0.0    52   99.4    10    139.3    13.6   1010.8  0.00  
  36    7:20    0.0    52   99.4    10    136.9    15.0   1010.8  0.00  
  36    7:30    3.0    52   99.3    11    129.6    15.1   1010.8  0.00  
  36    7:40    7.0    52   99.3    12    130.6    15.8   1010.5  0.00  
  36    7:50    8.0    52   99.3    10    135.1    15.0   1010.8  0.00  
  36    8:00   11.0    52   99.2    11    133.1    16.5   1010.8  0.00  
  36    8:10   16.0    52   99.1    11    131.9    15.7   1010.5  0.00  
  36    8:20   20.0    52   99.0    12    126.5    14.8   1010.5  0.00  
  36    8:30   23.0    52   98.9    13    134.8    16.9   1010.5  0.00  
  36    8:40   33.0    52   98.8    14    132.7    18.6   1010.2  0.00  
  36    8:50   40.0    52   98.6    13    138.2    18.3   1010.2  0.00  
  36    9:00   75.0    52   98.4    14    140.8    17.8   1010.2  0.00  
  36    9:10  123.0    52   98.1    11    136.1    15.1   1009.8  0.00  
  36    9:20  111.0    53   97.5    12    140.8    15.5   1010.2  0.00  
  36    9:30  156.0    53   96.7    12    141.3    16.8   1009.8  0.00  
  36    9:40  184.0    53   95.1    13    137.2    18.2   1009.8  0.00  
  36    9:50  182.0    54   93.9    14    142.6    19.1   1009.8  0.00  
  36   10:00  210.0    54   93.2    15    143.1    17.6   1009.5  0.00  
  36   10:10  192.0    54   91.9    16    142.9    19.8   1009.8  0.00  
  36   10:20  160.0    54   91.6    14    143.4    18.6   1009.8  0.00  
  36   10:30  157.0    54   91.4    14    136.7    18.8   1009.5  0.00  
  36   10:40  155.0    54   91.3    15    137.6    20.0   1009.5  0.00  
  36   10:50  188.0    54   91.8    15    145.4    19.2   1009.1  0.00  
  36   11:00  173.0    54   92.4    15    142.4    19.7   1009.1  0.00  
  36   11:10  141.0    54   92.9    15    141.0    19.5   1009.1  0.00  
  36   11:20  122.0    54   93.6    15    145.8    20.0   1009.1  0.00  
  36   11:30  144.0    54   93.8    14    152.2    21.0   1009.1  0.00  
  36   11:40  203.0    54   93.1    17    146.1    23.7   1008.5  0.00  
  36   11:50  115.0    54   92.5    17    140.7    21.9   1008.5  0.00  
  36   12:00   65.0    54   93.0    16    144.4    23.2   1008.1  0.00  
  36   12:10  181.0    54   93.7    16    143.6    22.0   1007.8  0.00  
  36   12:20  252.0    54   92.4    18    137.4    23.7   1007.5  0.00  
  36   12:30  202.0    54   90.8    20    141.5    26.1   1007.1  0.00  
  36   12:40  175.0    54   92.5    20    143.2    25.9   1006.8  0.00  
  36   12:50  108.0    54   93.7    18    152.4    23.6   1006.8  0.00  
  36   13:00  155.0    54   94.4    21    152.7    27.7   1006.4  0.00  
  36   13:10  226.0    54   94.1    22    151.2    30.6   1006.1  0.00  
  36   13:20  155.0    54   93.7    22    153.7    31.0   1005.8  0.00  
  36   13:30  174.0    54   93.7    24    156.2    31.0   1005.8  0.00  
  36   13:40  272.0    54   92.5    24    148.5    30.6   1005.1  0.00  
  36   13:50  131.0    54   92.8    24    150.5    30.8   1004.7  0.00  
  36   14:00  135.0    54   94.0    23    150.0    30.6   1004.7  0.00  
  36   14:10  135.0    54   95.2    22    152.5    28.2   1004.7  0.00  
  36   14:20  117.0    54   95.4    24    155.9    31.6   1004.7  0.00  
  36   14:30  110.0    53   95.6    25    155.1    32.0   1004.4  0.00  
  36   14:40   89.0    54   95.7    24    152.7    32.9   1004.1  0.00  
  36   14:50   73.0    54   95.4    23    152.8    32.0   1004.1  0.00  
  36   15:00   62.0    54   95.7    25    156.9    33.6   1004.1  0.00  
  36   15:10   61.0    54   96.2    24    158.3    33.4   1004.1  0.00  
  36   15:20   63.0    54   96.2    25    158.9    34.5   1003.7  0.00  
  36   15:30   49.0    54   96.0    25    154.7    33.1   1003.4  0.00  
  36   15:40   55.0    54   95.7    26    150.1    32.3   1003.1  0.00  
  36   15:50   41.0    54   95.3    26    149.9    33.2   1003.1  0.00  
  36   16:00   37.0    54   95.2    28    149.7    35.8   1003.1  0.00  
  36   16:10   18.0    54   95.2    26    151.0    34.1   1003.4  0.00  
  36   16:20   18.0    54   95.5    25    153.0    32.6   1003.1  0.01  
  36   16:30   14.0    54   95.8    24    151.5    33.2   1002.7  0.03  
  36   16:40    8.0    53   96.3    27    149.8    35.7   1002.7  0.04  
  36   16:50    3.0    53   96.6    25    151.3    32.5   1002.7  0.03  
  36   17:00    3.0    53   96.9    27    153.8    35.3   1002.7  0.05  
  36   17:10    3.0    53   97.2    26    155.4    33.2   1002.4  0.04  
  36   17:20    3.0    53   97.3    27    156.2    35.3   1002.4  0.05  
  36   17:30    1.0    53   97.5    27    154.8    38.1   1002.0  0.04  
  36   17:40    1.0    53   97.6    29    156.2    37.0   1002.0  0.05  
  36   17:50    0.0    54   97.6    32    152.5    44.9   1001.4  0.04  
  36   18:00    0.0    54   97.4    32    154.6    44.3   1001.4  0.05  
  36   18:10    0.0    54   97.3    29    155.4    41.8   1001.7  0.04  
  36   18:20    0.0    54   97.3    28    159.5    35.5   1001.7  0.04  
  36   18:30    0.0    54   96.8    28    164.3    39.6   1001.7  0.03  
  36   18:40    0.0    54   96.1    28    164.8    38.9   1002.0  0.03  
  36   18:50    0.0    54   96.1    28    166.4    38.4   1002.0  0.02  
  36   19:00    0.0    54   95.9    29    164.2    44.9   1002.0  0.02  
  36   19:10    0.0    54   95.7    28    171.2    42.0   1002.4  0.00  
  36   19:20    0.0    54   95.6    23    179.4    37.6   1002.4  0.02  
  36   19:30    0.0    54   95.7    28    173.6    41.9   1002.0  0.00  
  36   19:40    0.0    54   95.6    26    173.3    38.2   1002.0  0.00  
  36   19:50    0.0    54   95.6    27    173.0    37.1   1002.4  0.00  
  36   20:00    0.0    54   95.6    24    173.7    31.8   1002.4  0.00  
  36   20:10    0.0    55   95.6    23    178.7    32.1   1002.7  0.00  
  36   20:20    0.0    55   94.8    20    179.8    27.5   1002.4  0.00  

Return to Pt. Reyes graphs page.


Western Regional Climate Center,wrcc@dri.edu